NCAR-RAP Real-Time Weather Data

Output produced by METARs form (17 October 2018  17:15 UTC)
found at http://weather.rap.ucar.edu/surface/
 
RJSF 171100Z VRB02KT 9999 FEW020 BKN/// 11/10 Q1015
RJSF 171000Z VRB02KT 9999 FEW020 12/09 Q1014
RJSF 170900Z 01003KT 340V050 9999 FEW020 13/10 Q1014
RJSF 170800Z 03005KT 9999 FEW020 BKN/// 13/11 Q1013
RJSF 170700Z 36008KT 9999 FEW020 BKN/// 15/11 Q1012
RJSF 170600Z 01009KT 9999 FEW020 SCT070 BKN/// 16/11 Q1012
RJSF 170500Z 02007KT 340V060 9999 FEW005 SCT060 BKN070 15/11 Q1011
RJSF 170400Z 02006KT 9999 FEW005 SCT030 BKN060 14/11 Q1012
RJSF 170300Z 02008KT 9999 FEW005 BKN010 BKN050 14/11 Q1012
RJSF 170200Z 36009KT 9999 -SHRA FEW004 SCT010 BKN050 13/12 Q1012
RJSF 170140Z 35009KT 9999 FEW004 SCT007 BKN045 13/12 Q1013 RMK 1ST004 3ST007 7CU045 A2991
RJSF 170109Z 36012KT 9999 FEW005 SCT006 BKN008 13/12 Q1013 RMK 1ST005 3ST006 5ST008 A2992
RJSF 170100Z 35012KT 9999 FEW007 SCT010 BKN020 14/12 Q1012
RJSF 170000Z 34010KT 9999 FEW004 SCT008 BKN010 13/12 Q1012
RJSF 162347Z 36009KT 7000 FEW003 SCT008 BKN010 13/13 Q1012 RMK 1ST003 3ST008 5ST010 A2990
RJSF 162332Z 36008KT 5000 BR FEW003 SCT004 BKN006 13/13 Q1012 RMK 2ST003 4ST004 5ST006 A2989
RJSF 162323Z 35008KT 3000 BCFG BR FEW002 SCT003 BKN004 13/13 Q1012 RMK 1ST002 4ST003 6ST004 A2989 7000S
RJSF 162300Z 34005KT 300V010 2000 BCFG BR FEW001 BKN002 BKN003 12/12 Q1012
RJSF 162244Z 35003KT 310V030 1500 R01/P1800N BCFG BR FEW001 BKN002 12/12 Q1012 RMK 2ST001 7ST002 A2989
RJSF 162234Z 01005KT 1000 R01/P1800U BCFG BR FEW001 BKN002 12/12 Q1011 RMK 2ST001 7ST002 A2987
RJSF 162216Z 35006KT 310V010 0500 R01/0350VP1800U FG FEW001 BKN002 12/12 Q1011 RMK 1ST001 7ST002 A2987
RJSF 162215Z 35006KT 310V010 0500 R01/0350VP1800U FG FEW001 BKN002 12/12 Q1011 RMK 1ST001 7ST002 A2987
RJSF 162214Z 34005KT 310V010 0500 R01/0250V1700U FG FEW001 BKN002 12/12 Q1011 RMK 1ST001 7ST002 A2987
RJSF 162209Z 33006KT 0300 R01/0250V1500U FG VV002 12/12 Q1011 RMK A2987
RJSF 162207Z 33006KT 0300 R01/0250V0900D FG VV002 12/12 Q1011 RMK A2987
RJSF 162204Z 33006KT 0300 R01/0250V0900D FG VV002 12/12 Q1011 RMK A2987
RJSF 162200Z 34007KT 0300 R01/0550V1200D FG VV002 12/12 Q1011
RJSF 162151Z 35006KT 0300 R01/0400V1800U FG VV002 12/12 Q1011 RMK A2986
RJSF 162150Z 35005KT 0300 R01/0300V1800U FG VV002 12/12 Q1011 RMK A2986
RJSF 162148Z 35005KT 0300 R01/0250V1800U FG VV002 12/12 Q1011 RMK A2987
RJSF 162146Z 35004KT 0300 R01/0250V1300U FG VV002 12/12 Q1011 RMK A2987
RJSF 162140Z 33004KT 300V010 0300 R01/0250V0300N FG VV002 12/12 Q1011 RMK A2986
RJSF 161100Z 04003KT 9999 FEW020 BKN/// 12/12 Q1012
RJSF 161000Z VRB01KT 9999 FEW020 BKN/// 14/12 Q1013
RJSF 160900Z VRB01KT 9999 FEW020 BKN/// 15/12 Q1013
RJSF 160800Z 10002KT 9999 FEW020 BKN/// 15/13 Q1013
RJSF 160700Z VRB02KT 9999 FEW030 BKN/// 17/12 Q1013
RJSF 160600Z VRB02KT 9999 FEW030 BKN/// 18/10 Q1013
RJSF 160500Z 02003KT 320V060 9999 FEW020 SCT060 BKN/// 18/11 Q1013
RJSF 160400Z VRB02KT 9999 FEW015 BKN060 BKN/// 17/13 Q1013
RJSF 160300Z 30004KT 250V350 9999 FEW015 BKN/// 16/13 Q1014
RJSF 160200Z 30003KT 240V340 8000 FEW005 BKN/// 14/13 Q1015
RJSF 160119Z 28003KT 240V310 5000 BR FEW002 SCT005 BKN/// 14/14 Q1015 RMK 1ST002 3ST005 A3000
RJSF 160100Z VRB02KT 4000 BR FEW001 SCT005 BKN/// 13/13 Q1016
RJSF 160037Z VRB01KT 3000 BCFG BR FEW001 SCT004 BKN/// 13/13 Q1016 RMK 1ST001 3ST004 A3002
RJSF 160027Z VRB01KT 2000 BCFG BR FEW002 SCT003 BKN004 13/13 Q1016 RMK 1ST002 4ST003 6ST004 A3002
RJSF 160009Z VRB01KT 2000 BCFG BR FEW001 SCT002 BKN003 12/12 Q1016 RMK 1ST001 4ST002 7ST003 A3003
RJSF 160000Z VRB01KT 1200 R01/1200VP1800N BCFG BR FEW001 BKN002 BKN007 12/12 Q1016
RJSF 152344Z VRB01KT 0800 R01/0500VP1800U FG FEW001 BKN002 BKN007 11/11 Q1017 RMK 2ST001 5ST002 7ST007 A3003
RJSF 152342Z VRB01KT 0800 R01/0500VP1800U FG FEW001 BKN002 BKN007 11/11 Q1017 RMK 2ST001 5ST002 7ST007 A3003
RJSF 152338Z VRB01KT 0700 R01/0450V0750N FG FEW001 BKN002 BKN007 11/11 Q1017 RMK 2ST001 5ST002 7ST007 A3003
RJSF 152336Z VRB01KT 0700 R01/0450V0750N FG FEW001 BKN002 BKN007 11/11 Q1017 RMK 2ST001 5ST002 7ST007 A3003
RJSF 152331Z VRB01KT 0600 R01/0450V0900D FG FEW001 BKN002 BKN007 11/11 Q1017 RMK 2ST001 5ST002 7ST007 A3003
RJSF 152316Z VRB01KT 0700 R01/0600V0900D FG SCT001 BKN003 BKN007 11/11 Q1017 RMK 3ST001 5ST003 7ST007 A3004
RJSF 152300Z VRB01KT 0200 R01/0250V0700D FG VV002 11/11 Q1017
RJSF 152200Z VRB01KT 0300 R01/0250V0350N FG VV003 10/10 Q1017
RJSF 152140Z 00000KT 0300 R01/0250V0350N FG VV003 11/11 Q1017 RMK A3003
RJSF 151100Z 12004KT 9999 FEW045 BKN130 BKN/// 14/12 Q1018
RJSF 151000Z 12003KT 9999 FEW045 SCT120 BKN/// 14/12 Q1018
RJSF 150900Z 11003KT 9999 FEW020 BKN150 14/12 Q1017
RJSF 150800Z 11003KT 9999 FEW025 BKN160 14/12 Q1018
RJSF 150700Z 13003KT 9999 FEW012 SCT030 BKN130 15/12 Q1018
RJSF 150600Z VRB01KT 9999 FEW012 BKN140 16/14 Q1017